Terminal Aerodrome Forecast
Issued by NWS Pocatello, ID

Home | Current Version | Previous Version | Text Only | Print | Product List | Glossary On
Versions: 1 2 3 4 5 6 7 8 9 10 11 12 13 14 15 16 17 18 19 20
130
FTUS45 KPIH 150528
TAFIDA
TAF
KIDA 150528Z 1506/1606 36006KT 3/4SM BR OVC003
     FM151700 VRB05KT 3SM BR SCT003 OVC007
     FM160200 24007KT 4SM BR SCT007 BKN150=

USA.gov is the U.S. government's official web portal to all federal, state and local government web resources and services.